sensor_id;sensor_type;location;lat;lon;timestamp;P1;durP1;ratioP1;P2;durP2;ratioP2
58553;SDS011;48119;53.218;6.576;2022-10-23T00:00:57;14.40;;;6.43;;
58553;SDS011;48119;53.218;6.576;2022-10-23T00:03:23;12.13;;;6.35;;
58553;SDS011;48119;53.218;6.576;2022-10-23T00:05:49;14.20;;;5.97;;
58553;SDS011;48119;53.218;6.576;2022-10-23T00:08:14;9.75;;;6.38;;
58553;SDS011;48119;53.218;6.576;2022-10-23T00:10:43;13.88;;;6.90;;
58553;SDS011;48119;53.218;6.576;2022-10-23T00:13:09;15.65;;;6.95;;
58553;SDS011;48119;53.218;6.576;2022-10-23T00:15:35;11.65;;;6.05;;
58553;SDS011;48119;53.218;6.576;2022-10-23T00:18:01;13.88;;;6.50;;
58553;SDS011;48119;53.218;6.576;2022-10-23T00:20:28;18.15;;;6.47;;
58553;SDS011;48119;53.218;6.576;2022-10-23T00:22:56;14.18;;;6.63;;
58553;SDS011;48119;53.218;6.576;2022-10-23T00:25:22;11.15;;;6.10;;
58553;SDS011;48119;53.218;6.576;2022-10-23T00:27:47;17.33;;;6.90;;
58553;SDS011;48119;53.218;6.576;2022-10-23T00:30:13;13.50;;;6.53;;
58553;SDS011;48119;53.218;6.576;2022-10-23T00:32:39;13.48;;;6.78;;
58553;SDS011;48119;53.218;6.576;2022-10-23T00:35:05;11.82;;;5.75;;
58553;SDS011;48119;53.218;6.576;2022-10-23T00:37:31;12.73;;;5.93;;
58553;SDS011;48119;53.218;6.576;2022-10-23T00:39:57;16.92;;;6.60;;
58553;SDS011;48119;53.218;6.576;2022-10-23T00:42:23;16.05;;;7.28;;
58553;SDS011;48119;53.218;6.576;2022-10-23T00:47:14;16.05;;;6.78;;
58553;SDS011;48119;53.218;6.576;2022-10-23T00:49:41;11.52;;;6.35;;
58553;SDS011;48119;53.218;6.576;2022-10-23T00:52:07;12.10;;;6.80;;
58553;SDS011;48119;53.218;6.576;2022-10-23T00:54:38;11.63;;;6.72;;
58553;SDS011;48119;53.218;6.576;2022-10-23T00:57:07;15.38;;;6.80;;
58553;SDS011;48119;53.218;6.576;2022-10-23T00:59:37;20.05;;;8.15;;
58553;SDS011;48119;53.218;6.576;2022-10-23T01:02:04;19.27;;;7.78;;
58553;SDS011;48119;53.218;6.576;2022-10-23T01:04:30;15.68;;;7.78;;
58553;SDS011;48119;53.218;6.576;2022-10-23T01:09:58;12.35;;;6.68;;
58553;SDS011;48119;53.218;6.576;2022-10-23T01:12:39;13.60;;;7.05;;
58553;SDS011;48119;53.218;6.576;2022-10-23T01:20:42;13.98;;;7.25;;
58553;SDS011;48119;53.218;6.576;2022-10-23T01:29:18;13.20;;;7.78;;
58553;SDS011;48119;53.218;6.576;2022-10-23T01:34:33;17.88;;;8.73;;
58553;SDS011;48119;53.218;6.576;2022-10-23T01:37:25;14.10;;;7.85;;
58553;SDS011;48119;53.218;6.576;2022-10-23T01:39:55;12.73;;;7.53;;
58553;SDS011;48119;53.218;6.576;2022-10-23T01:42:28;18.02;;;7.80;;
58553;SDS011;48119;53.218;6.576;2022-10-23T01:45:11;13.18;;;7.15;;
58553;SDS011;48119;53.218;6.576;2022-10-23T01:47:42;11.63;;;7.53;;
58553;SDS011;48119;53.218;6.576;2022-10-23T01:50:10;14.38;;;8.32;;
58553;SDS011;48119;53.218;6.576;2022-10-23T01:52:38;12.88;;;7.45;;
58553;SDS011;48119;53.218;6.576;2022-10-23T01:55:04;9.88;;;7.18;;
58553;SDS011;48119;53.218;6.576;2022-10-23T01:57:36;11.43;;;7.68;;
58553;SDS011;48119;53.218;6.576;2022-10-23T02:00:05;9.80;;;6.88;;
58553;SDS011;48119;53.218;6.576;2022-10-23T02:02:35;16.80;;;8.88;;
58553;SDS011;48119;53.218;6.576;2022-10-23T02:05:08;14.80;;;7.57;;
58553;SDS011;48119;53.218;6.576;2022-10-23T02:07:38;13.13;;;7.50;;
58553;SDS011;48119;53.218;6.576;2022-10-23T02:10:04;11.25;;;6.78;;
58553;SDS011;48119;53.218;6.576;2022-10-23T02:15:31;14.85;;;8.70;;
58553;SDS011;48119;53.218;6.576;2022-10-23T02:18:07;12.90;;;7.85;;
58553;SDS011;48119;53.218;6.576;2022-10-23T02:20:47;13.80;;;8.63;;
58553;SDS011;48119;53.218;6.576;2022-10-23T02:23:21;12.15;;;8.93;;
58553;SDS011;48119;53.218;6.576;2022-10-23T02:25:59;12.03;;;8.67;;
58553;SDS011;48119;53.218;6.576;2022-10-23T02:28:32;13.05;;;8.50;;
58553;SDS011;48119;53.218;6.576;2022-10-23T02:31:05;15.13;;;9.52;;
58553;SDS011;48119;53.218;6.576;2022-10-23T02:33:36;14.90;;;8.25;;
58553;SDS011;48119;53.218;6.576;2022-10-23T02:36:02;14.07;;;9.20;;
58553;SDS011;48119;53.218;6.576;2022-10-23T02:41:51;16.50;;;9.73;;
58553;SDS011;48119;53.218;6.576;2022-10-23T02:44:00;17.35;;;9.25;;
58553;SDS011;48119;53.218;6.576;2022-10-23T02:49:12;13.93;;;8.60;;
58553;SDS011;48119;53.218;6.576;2022-10-23T02:51:52;12.05;;;7.75;;
58553;SDS011;48119;53.218;6.576;2022-10-23T03:03:12;10.70;;;7.07;;
58553;SDS011;48119;53.218;6.576;2022-10-23T03:05:35;14.38;;;8.40;;
58553;SDS011;48119;53.218;6.576;2022-10-23T03:08:03;13.77;;;9.73;;
58553;SDS011;48119;53.218;6.576;2022-10-23T03:10:31;10.82;;;7.20;;
58553;SDS011;48119;53.218;6.576;2022-10-23T03:12:57;9.05;;;6.75;;
58553;SDS011;48119;53.218;6.576;2022-10-23T03:15:23;8.15;;;6.35;;
58553;SDS011;48119;53.218;6.576;2022-10-23T03:17:49;10.43;;;6.68;;
58553;SDS011;48119;53.218;6.576;2022-10-23T03:20:15;8.98;;;7.13;;
58553;SDS011;48119;53.218;6.576;2022-10-23T03:22:40;10.50;;;7.03;;
58553;SDS011;48119;53.218;6.576;2022-10-23T03:25:06;9.63;;;6.72;;
58553;SDS011;48119;53.218;6.576;2022-10-23T03:27:32;8.77;;;7.15;;
58553;SDS011;48119;53.218;6.576;2022-10-23T03:29:58;9.75;;;7.43;;
58553;SDS011;48119;53.218;6.576;2022-10-23T03:32:24;10.05;;;6.93;;
58553;SDS011;48119;53.218;6.576;2022-10-23T03:34:49;9.70;;;7.10;;
58553;SDS011;48119;53.218;6.576;2022-10-23T03:37:15;9.15;;;6.95;;
58553;SDS011;48119;53.218;6.576;2022-10-23T03:39:41;8.13;;;6.88;;
58553;SDS011;48119;53.218;6.576;2022-10-23T03:42:07;8.73;;;6.88;;
58553;SDS011;48119;53.218;6.576;2022-10-23T03:44:32;8.90;;;8.00;;
58553;SDS011;48119;53.218;6.576;2022-10-23T03:46:59;9.30;;;7.95;;
58553;SDS011;48119;53.218;6.576;2022-10-23T03:49:25;12.65;;;7.72;;
58553;SDS011;48119;53.218;6.576;2022-10-23T03:51:50;10.23;;;7.70;;
58553;SDS011;48119;53.218;6.576;2022-10-23T03:54:26;11.60;;;8.38;;
58553;SDS011;48119;53.218;6.576;2022-10-23T03:56:53;10.60;;;7.18;;
58553;SDS011;48119;53.218;6.576;2022-10-23T03:59:20;9.43;;;7.38;;
58553;SDS011;48119;53.218;6.576;2022-10-23T04:01:46;9.48;;;7.90;;
58553;SDS011;48119;53.218;6.576;2022-10-23T04:04:12;11.15;;;8.35;;
58553;SDS011;48119;53.218;6.576;2022-10-23T04:06:39;15.07;;;8.35;;
58553;SDS011;48119;53.218;6.576;2022-10-23T04:09:05;9.85;;;8.27;;
58553;SDS011;48119;53.218;6.576;2022-10-23T04:11:31;11.38;;;8.57;;
58553;SDS011;48119;53.218;6.576;2022-10-23T04:13:57;12.05;;;8.43;;
58553;SDS011;48119;53.218;6.576;2022-10-23T04:16:23;11.77;;;7.78;;
58553;SDS011;48119;53.218;6.576;2022-10-23T04:18:49;14.02;;;9.05;;
58553;SDS011;48119;53.218;6.576;2022-10-23T04:21:15;12.68;;;9.00;;
58553;SDS011;48119;53.218;6.576;2022-10-23T04:23:43;11.25;;;8.45;;
58553;SDS011;48119;53.218;6.576;2022-10-23T04:26:09;11.43;;;8.88;;
58553;SDS011;48119;53.218;6.576;2022-10-23T04:28:35;11.30;;;8.20;;
58553;SDS011;48119;53.218;6.576;2022-10-23T04:31:01;9.50;;;7.65;;
58553;SDS011;48119;53.218;6.576;2022-10-23T04:33:26;13.95;;;10.13;;
58553;SDS011;48119;53.218;6.576;2022-10-23T04:35:52;12.43;;;8.27;;
58553;SDS011;48119;53.218;6.576;2022-10-23T04:38:19;17.02;;;9.23;;
58553;SDS011;48119;53.218;6.576;2022-10-23T04:40:44;10.10;;;7.85;;
58553;SDS011;48119;53.218;6.576;2022-10-23T04:43:10;13.80;;;9.73;;
58553;SDS011;48119;53.218;6.576;2022-10-23T04:45:36;14.90;;;8.85;;
58553;SDS011;48119;53.218;6.576;2022-10-23T04:48:02;13.05;;;8.70;;
58553;SDS011;48119;53.218;6.576;2022-10-23T04:50:28;13.10;;;9.50;;
58553;SDS011;48119;53.218;6.576;2022-10-23T04:52:55;15.80;;;9.00;;
58553;SDS011;48119;53.218;6.576;2022-10-23T04:55:21;10.90;;;7.95;;
58553;SDS011;48119;53.218;6.576;2022-10-23T04:57:49;13.85;;;8.60;;
58553;SDS011;48119;53.218;6.576;2022-10-23T05:00:16;12.10;;;9.13;;
58553;SDS011;48119;53.218;6.576;2022-10-23T05:02:42;12.45;;;9.00;;
58553;SDS011;48119;53.218;6.576;2022-10-23T05:05:08;11.82;;;8.43;;
58553;SDS011;48119;53.218;6.576;2022-10-23T05:07:35;19.38;;;8.73;;
58553;SDS011;48119;53.218;6.576;2022-10-23T05:10:01;13.15;;;9.32;;
58553;SDS011;48119;53.218;6.576;2022-10-23T05:12:27;14.90;;;9.38;;
58553;SDS011;48119;53.218;6.576;2022-10-23T05:14:53;16.83;;;9.45;;
58553;SDS011;48119;53.218;6.576;2022-10-23T05:17:20;17.17;;;10.20;;
58553;SDS011;48119;53.218;6.576;2022-10-23T05:19:52;15.18;;;9.63;;
58553;SDS011;48119;53.218;6.576;2022-10-23T05:22:20;18.83;;;9.93;;
58553;SDS011;48119;53.218;6.576;2022-10-23T05:24:49;17.70;;;10.15;;
58553;SDS011;48119;53.218;6.576;2022-10-23T05:27:15;14.25;;;9.48;;
58553;SDS011;48119;53.218;6.576;2022-10-23T05:29:41;15.65;;;9.07;;
58553;SDS011;48119;53.218;6.576;2022-10-23T05:32:07;13.50;;;8.73;;
58553;SDS011;48119;53.218;6.576;2022-10-23T05:34:36;18.45;;;9.38;;
58553;SDS011;48119;53.218;6.576;2022-10-23T05:37:04;17.42;;;10.18;;
58553;SDS011;48119;53.218;6.576;2022-10-23T05:39:31;17.50;;;9.23;;
58553;SDS011;48119;53.218;6.576;2022-10-23T05:41:58;13.85;;;9.00;;
58553;SDS011;48119;53.218;6.576;2022-10-23T05:44:24;13.02;;;9.82;;
58553;SDS011;48119;53.218;6.576;2022-10-23T05:46:50;17.23;;;10.35;;
58553;SDS011;48119;53.218;6.576;2022-10-23T05:49:16;13.35;;;8.98;;
58553;SDS011;48119;53.218;6.576;2022-10-23T05:51:42;14.63;;;9.18;;
58553;SDS011;48119;53.218;6.576;2022-10-23T05:54:08;11.95;;;8.43;;
58553;SDS011;48119;53.218;6.576;2022-10-23T05:56:34;14.82;;;9.23;;
58553;SDS011;48119;53.218;6.576;2022-10-23T05:59:01;16.65;;;9.18;;
58553;SDS011;48119;53.218;6.576;2022-10-23T06:01:27;13.95;;;9.02;;
58553;SDS011;48119;53.218;6.576;2022-10-23T06:03:52;13.85;;;8.60;;
58553;SDS011;48119;53.218;6.576;2022-10-23T06:06:18;14.32;;;8.82;;
58553;SDS011;48119;53.218;6.576;2022-10-23T06:08:44;15.23;;;8.70;;
58553;SDS011;48119;53.218;6.576;2022-10-23T06:11:11;10.73;;;8.50;;
58553;SDS011;48119;53.218;6.576;2022-10-23T06:13:38;10.93;;;8.68;;
58553;SDS011;48119;53.218;6.576;2022-10-23T06:16:16;17.63;;;9.40;;
58553;SDS011;48119;53.218;6.576;2022-10-23T06:18:44;13.35;;;8.70;;
58553;SDS011;48119;53.218;6.576;2022-10-23T06:21:11;13.77;;;8.40;;
58553;SDS011;48119;53.218;6.576;2022-10-23T06:23:38;17.00;;;8.55;;
58553;SDS011;48119;53.218;6.576;2022-10-23T06:26:05;11.60;;;8.23;;
58553;SDS011;48119;53.218;6.576;2022-10-23T06:28:33;12.55;;;8.70;;
58553;SDS011;48119;53.218;6.576;2022-10-23T06:30:59;14.35;;;8.57;;
58553;SDS011;48119;53.218;6.576;2022-10-23T06:33:28;16.00;;;8.07;;
58553;SDS011;48119;53.218;6.576;2022-10-23T06:35:55;15.65;;;8.63;;
58553;SDS011;48119;53.218;6.576;2022-10-23T06:38:20;14.75;;;8.73;;
58553;SDS011;48119;53.218;6.576;2022-10-23T06:40:51;13.88;;;9.35;;
58553;SDS011;48119;53.218;6.576;2022-10-23T06:43:17;20.73;;;8.38;;
58553;SDS011;48119;53.218;6.576;2022-10-23T06:45:43;14.23;;;8.70;;
58553;SDS011;48119;53.218;6.576;2022-10-23T06:48:08;14.00;;;9.52;;
58553;SDS011;48119;53.218;6.576;2022-10-23T06:50:35;17.35;;;9.70;;
58553;SDS011;48119;53.218;6.576;2022-10-23T06:53:02;15.80;;;9.40;;
58553;SDS011;48119;53.218;6.576;2022-10-23T06:55:29;13.02;;;8.57;;
58553;SDS011;48119;53.218;6.576;2022-10-23T06:57:56;11.70;;;8.73;;
58553;SDS011;48119;53.218;6.576;2022-10-23T07:00:22;14.30;;;8.95;;
58553;SDS011;48119;53.218;6.576;2022-10-23T07:02:48;14.00;;;8.60;;
58553;SDS011;48119;53.218;6.576;2022-10-23T07:05:14;13.27;;;8.82;;
58553;SDS011;48119;53.218;6.576;2022-10-23T07:07:40;12.60;;;8.38;;
58553;SDS011;48119;53.218;6.576;2022-10-23T07:10:06;14.52;;;8.30;;
58553;SDS011;48119;53.218;6.576;2022-10-23T07:12:32;17.45;;;8.90;;
58553;SDS011;48119;53.218;6.576;2022-10-23T07:14:58;11.73;;;8.10;;
58553;SDS011;48119;53.218;6.576;2022-10-23T07:17:24;13.63;;;8.70;;
58553;SDS011;48119;53.218;6.576;2022-10-23T07:19:49;16.35;;;9.57;;
58553;SDS011;48119;53.218;6.576;2022-10-23T07:22:15;15.90;;;8.95;;
58553;SDS011;48119;53.218;6.576;2022-10-23T07:24:41;11.15;;;7.50;;
58553;SDS011;48119;53.218;6.576;2022-10-23T07:27:07;14.75;;;8.85;;
58553;SDS011;48119;53.218;6.576;2022-10-23T07:29:33;12.75;;;8.15;;
58553;SDS011;48119;53.218;6.576;2022-10-23T07:31:59;11.55;;;7.88;;
58553;SDS011;48119;53.218;6.576;2022-10-23T07:34:28;12.70;;;8.05;;
58553;SDS011;48119;53.218;6.576;2022-10-23T07:36:55;19.13;;;9.20;;
58553;SDS011;48119;53.218;6.576;2022-10-23T07:39:21;17.70;;;8.63;;
58553;SDS011;48119;53.218;6.576;2022-10-23T07:41:47;13.10;;;8.45;;
58553;SDS011;48119;53.218;6.576;2022-10-23T07:44:13;13.75;;;9.35;;
58553;SDS011;48119;53.218;6.576;2022-10-23T07:46:39;12.57;;;7.97;;
58553;SDS011;48119;53.218;6.576;2022-10-23T07:49:04;11.13;;;7.38;;
58553;SDS011;48119;53.218;6.576;2022-10-23T07:51:30;16.23;;;7.45;;
58553;SDS011;48119;53.218;6.576;2022-10-23T07:53:56;14.70;;;7.70;;
58553;SDS011;48119;53.218;6.576;2022-10-23T07:56:22;17.98;;;8.07;;
58553;SDS011;48119;53.218;6.576;2022-10-23T07:58:50;13.80;;;7.53;;
58553;SDS011;48119;53.218;6.576;2022-10-23T08:01:38;11.20;;;6.85;;
58553;SDS011;48119;53.218;6.576;2022-10-23T08:04:04;14.43;;;7.35;;
58553;SDS011;48119;53.218;6.576;2022-10-23T08:06:31;17.67;;;8.20;;
58553;SDS011;48119;53.218;6.576;2022-10-23T08:08:59;13.65;;;7.82;;
58553;SDS011;48119;53.218;6.576;2022-10-23T08:11:25;11.60;;;7.18;;
58553;SDS011;48119;53.218;6.576;2022-10-23T08:13:53;17.40;;;8.23;;
58553;SDS011;48119;53.218;6.576;2022-10-23T08:16:21;12.50;;;7.57;;
58553;SDS011;48119;53.218;6.576;2022-10-23T08:18:47;12.45;;;7.60;;
58553;SDS011;48119;53.218;6.576;2022-10-23T08:21:13;13.52;;;6.97;;
58553;SDS011;48119;53.218;6.576;2022-10-23T08:23:43;14.70;;;8.00;;
58553;SDS011;48119;53.218;6.576;2022-10-23T08:26:09;13.60;;;7.70;;
58553;SDS011;48119;53.218;6.576;2022-10-23T08:28:35;13.50;;;7.68;;
58553;SDS011;48119;53.218;6.576;2022-10-23T08:31:08;12.32;;;7.25;;
58553;SDS011;48119;53.218;6.576;2022-10-23T08:33:39;16.25;;;8.13;;
58553;SDS011;48119;53.218;6.576;2022-10-23T08:36:05;10.32;;;7.07;;
58553;SDS011;48119;53.218;6.576;2022-10-23T08:38:40;15.35;;;7.25;;
58553;SDS011;48119;53.218;6.576;2022-10-23T08:41:27;9.82;;;7.20;;
58553;SDS011;48119;53.218;6.576;2022-10-23T08:44:42;11.32;;;7.22;;
58553;SDS011;48119;53.218;6.576;2022-10-23T08:49:36;15.52;;;7.95;;
58553;SDS011;48119;53.218;6.576;2022-10-23T08:55:35;15.18;;;8.13;;
58553;SDS011;48119;53.218;6.576;2022-10-23T08:58:06;11.38;;;7.40;;
58553;SDS011;48119;53.218;6.576;2022-10-23T09:00:40;11.25;;;8.25;;
58553;SDS011;48119;53.218;6.576;2022-10-23T09:03:08;12.65;;;7.60;;
58553;SDS011;48119;53.218;6.576;2022-10-23T09:05:38;14.43;;;8.30;;
58553;SDS011;48119;53.218;6.576;2022-10-23T09:11:08;13.82;;;6.97;;
58553;SDS011;48119;53.218;6.576;2022-10-23T09:13:55;12.90;;;7.88;;
58553;SDS011;48119;53.218;6.576;2022-10-23T09:18:53;11.18;;;7.63;;
58553;SDS011;48119;53.218;6.576;2022-10-23T09:21:24;13.88;;;6.55;;
58553;SDS011;48119;53.218;6.576;2022-10-23T09:23:53;17.17;;;6.97;;
58553;SDS011;48119;53.218;6.576;2022-10-23T09:26:20;14.10;;;7.40;;
58553;SDS011;48119;53.218;6.576;2022-10-23T09:28:50;13.05;;;7.70;;
58553;SDS011;48119;53.218;6.576;2022-10-23T09:31:26;13.68;;;7.35;;
58553;SDS011;48119;53.218;6.576;2022-10-23T09:34:01;13.23;;;7.47;;
58553;SDS011;48119;53.218;6.576;2022-10-23T09:36:28;15.65;;;7.05;;
58553;SDS011;48119;53.218;6.576;2022-10-23T09:38:57;11.40;;;6.68;;
58553;SDS011;48119;53.218;6.576;2022-10-23T09:41:28;9.20;;;6.72;;
58553;SDS011;48119;53.218;6.576;2022-10-23T09:44:00;15.02;;;6.25;;
58553;SDS011;48119;53.218;6.576;2022-10-23T09:46:36;14.18;;;6.93;;
58553;SDS011;48119;53.218;6.576;2022-10-23T09:49:22;13.68;;;7.68;;
58553;SDS011;48119;53.218;6.576;2022-10-23T09:54:30;10.38;;;6.82;;
58553;SDS011;48119;53.218;6.576;2022-10-23T09:57:01;10.85;;;6.70;;
58553;SDS011;48119;53.218;6.576;2022-10-23T09:59:48;11.73;;;6.38;;
58553;SDS011;48119;53.218;6.576;2022-10-23T10:02:26;12.15;;;6.65;;
58553;SDS011;48119;53.218;6.576;2022-10-23T10:04:57;12.27;;;7.15;;
58553;SDS011;48119;53.218;6.576;2022-10-23T10:07:24;9.32;;;6.20;;
58553;SDS011;48119;53.218;6.576;2022-10-23T10:09:53;10.35;;;5.80;;
58553;SDS011;48119;53.218;6.576;2022-10-23T10:17:38;9.10;;;5.43;;
58553;SDS011;48119;53.218;6.576;2022-10-23T10:22:55;15.82;;;7.90;;
58553;SDS011;48119;53.218;6.576;2022-10-23T10:28:28;10.55;;;5.68;;
58553;SDS011;48119;53.218;6.576;2022-10-23T10:37:05;13.27;;;6.05;;
58553;SDS011;48119;53.218;6.576;2022-10-23T10:39:56;10.27;;;5.78;;
58553;SDS011;48119;53.218;6.576;2022-10-23T10:51:07;8.52;;;4.40;;
58553;SDS011;48119;53.218;6.576;2022-10-23T10:54:04;12.75;;;5.75;;
58553;SDS011;48119;53.218;6.576;2022-10-23T10:56:44;12.50;;;4.90;;
58553;SDS011;48119;53.218;6.576;2022-10-23T11:04:51;9.32;;;5.05;;
58553;SDS011;48119;53.218;6.576;2022-10-23T11:07:31;12.20;;;5.18;;
58553;SDS011;48119;53.218;6.576;2022-10-23T11:10:05;10.23;;;5.18;;
58553;SDS011;48119;53.218;6.576;2022-10-23T11:15:20;10.77;;;5.25;;
58553;SDS011;48119;53.218;6.576;2022-10-23T11:18:00;10.18;;;5.47;;
58553;SDS011;48119;53.218;6.576;2022-10-23T11:28:50;13.75;;;6.25;;
58553;SDS011;48119;53.218;6.576;2022-10-23T11:36:47;12.55;;;5.35;;
58553;SDS011;48119;53.218;6.576;2022-10-23T11:41:56;11.15;;;5.22;;
58553;SDS011;48119;53.218;6.576;2022-10-23T11:44:25;8.95;;;5.38;;
58553;SDS011;48119;53.218;6.576;2022-10-23T11:47:42;9.50;;;5.28;;
58553;SDS011;48119;53.218;6.576;2022-10-23T11:52:50;12.57;;;5.47;;
58553;SDS011;48119;53.218;6.576;2022-10-23T11:55:20;10.20;;;4.43;;
58553;SDS011;48119;53.218;6.576;2022-10-23T12:00:48;7.38;;;4.60;;
58553;SDS011;48119;53.218;6.576;2022-10-23T12:03:20;9.77;;;6.13;;
58553;SDS011;48119;53.218;6.576;2022-10-23T12:05:55;11.18;;;5.70;;
58553;SDS011;48119;53.218;6.576;2022-10-23T12:08:25;8.90;;;4.80;;
58553;SDS011;48119;53.218;6.576;2022-10-23T12:10:53;8.05;;;3.55;;
58553;SDS011;48119;53.218;6.576;2022-10-23T12:16:01;9.95;;;4.65;;
58553;SDS011;48119;53.218;6.576;2022-10-23T12:18:29;9.27;;;4.13;;
58553;SDS011;48119;53.218;6.576;2022-10-23T12:20:59;7.68;;;4.32;;
58553;SDS011;48119;53.218;6.576;2022-10-23T12:34:38;10.05;;;3.90;;
58553;SDS011;48119;53.218;6.576;2022-10-23T12:39:54;8.57;;;3.60;;
58553;SDS011;48119;53.218;6.576;2022-10-23T12:42:24;10.75;;;4.45;;
58553;SDS011;48119;53.218;6.576;2022-10-23T12:47:43;8.18;;;3.80;;
58553;SDS011;48119;53.218;6.576;2022-10-23T12:50:19;12.00;;;4.47;;
58553;SDS011;48119;53.218;6.576;2022-10-23T12:52:57;9.00;;;3.92;;
58553;SDS011;48119;53.218;6.576;2022-10-23T12:55:44;6.55;;;3.78;;
58553;SDS011;48119;53.218;6.576;2022-10-23T12:58:21;8.10;;;3.60;;
58553;SDS011;48119;53.218;6.576;2022-10-23T13:00:56;8.93;;;4.18;;
58553;SDS011;48119;53.218;6.576;2022-10-23T13:03:24;9.95;;;4.47;;
58553;SDS011;48119;53.218;6.576;2022-10-23T13:05:52;10.32;;;4.13;;
58553;SDS011;48119;53.218;6.576;2022-10-23T13:08:20;7.85;;;3.97;;
58553;SDS011;48119;53.218;6.576;2022-10-23T13:10:47;6.32;;;4.07;;
58553;SDS011;48119;53.218;6.576;2022-10-23T13:13:19;7.40;;;4.13;;
58553;SDS011;48119;53.218;6.576;2022-10-23T13:15:47;7.05;;;3.25;;
58553;SDS011;48119;53.218;6.576;2022-10-23T13:18:13;10.05;;;4.22;;
58553;SDS011;48119;53.218;6.576;2022-10-23T13:20:54;7.68;;;3.78;;
58553;SDS011;48119;53.218;6.576;2022-10-23T13:23:29;8.48;;;4.93;;
58553;SDS011;48119;53.218;6.576;2022-10-23T13:26:05;6.38;;;3.70;;
58553;SDS011;48119;53.218;6.576;2022-10-23T13:28:54;6.82;;;3.47;;
58553;SDS011;48119;53.218;6.576;2022-10-23T13:36:23;9.98;;;4.18;;
58553;SDS011;48119;53.218;6.576;2022-10-23T13:41:24;9.40;;;3.67;;
58553;SDS011;48119;53.218;6.576;2022-10-23T13:43:52;6.38;;;2.95;;
58553;SDS011;48119;53.218;6.576;2022-10-23T13:46:19;7.75;;;3.85;;
58553;SDS011;48119;53.218;6.576;2022-10-23T13:48:46;8.18;;;2.95;;
58553;SDS011;48119;53.218;6.576;2022-10-23T13:51:14;8.23;;;4.20;;
58553;SDS011;48119;53.218;6.576;2022-10-23T13:53:45;6.25;;;3.30;;
58553;SDS011;48119;53.218;6.576;2022-10-23T13:56:11;7.20;;;3.10;;
58553;SDS011;48119;53.218;6.576;2022-10-23T13:58:38;6.18;;;3.45;;
58553;SDS011;48119;53.218;6.576;2022-10-23T14:01:05;9.48;;;3.25;;
58553;SDS011;48119;53.218;6.576;2022-10-23T14:03:36;6.55;;;3.50;;
58553;SDS011;48119;53.218;6.576;2022-10-23T14:06:02;4.25;;;3.17;;
58553;SDS011;48119;53.218;6.576;2022-10-23T14:08:27;7.55;;;3.40;;
58553;SDS011;48119;53.218;6.576;2022-10-23T14:10:53;9.93;;;3.53;;
58553;SDS011;48119;53.218;6.576;2022-10-23T14:13:19;8.23;;;3.47;;
58553;SDS011;48119;53.218;6.576;2022-10-23T14:15:51;10.52;;;3.83;;
58553;SDS011;48119;53.218;6.576;2022-10-23T14:18:18;8.88;;;4.30;;
58553;SDS011;48119;53.218;6.576;2022-10-23T14:20:44;7.53;;;3.50;;
58553;SDS011;48119;53.218;6.576;2022-10-23T14:23:10;10.82;;;3.67;;
58553;SDS011;48119;53.218;6.576;2022-10-23T14:25:38;6.47;;;3.17;;
58553;SDS011;48119;53.218;6.576;2022-10-23T14:28:04;8.77;;;3.95;;
58553;SDS011;48119;53.218;6.576;2022-10-23T14:30:29;8.73;;;3.83;;
58553;SDS011;48119;53.218;6.576;2022-10-23T14:32:55;7.43;;;3.90;;
58553;SDS011;48119;53.218;6.576;2022-10-23T14:35:21;11.05;;;3.22;;
58553;SDS011;48119;53.218;6.576;2022-10-23T14:37:47;5.38;;;3.42;;
58553;SDS011;48119;53.218;6.576;2022-10-23T14:40:12;8.50;;;3.78;;
58553;SDS011;48119;53.218;6.576;2022-10-23T14:42:38;8.00;;;3.30;;
58553;SDS011;48119;53.218;6.576;2022-10-23T14:45:04;8.60;;;3.10;;
58553;SDS011;48119;53.218;6.576;2022-10-23T14:47:31;8.23;;;3.40;;
58553;SDS011;48119;53.218;6.576;2022-10-23T14:49:57;7.90;;;3.83;;
58553;SDS011;48119;53.218;6.576;2022-10-23T14:52:22;9.23;;;3.78;;
58553;SDS011;48119;53.218;6.576;2022-10-23T14:54:52;8.60;;;3.72;;
58553;SDS011;48119;53.218;6.576;2022-10-23T14:57:19;6.78;;;3.15;;
58553;SDS011;48119;53.218;6.576;2022-10-23T14:59:46;5.80;;;3.33;;
58553;SDS011;48119;53.218;6.576;2022-10-23T15:02:12;6.15;;;3.40;;
58553;SDS011;48119;53.218;6.576;2022-10-23T15:04:38;11.07;;;3.42;;
58553;SDS011;48119;53.218;6.576;2022-10-23T15:07:04;11.52;;;4.20;;
58553;SDS011;48119;53.218;6.576;2022-10-23T15:09:30;11.50;;;3.63;;
58553;SDS011;48119;53.218;6.576;2022-10-23T15:11:59;12.23;;;4.30;;
58553;SDS011;48119;53.218;6.576;2022-10-23T15:14:25;6.65;;;4.03;;
58553;SDS011;48119;53.218;6.576;2022-10-23T15:16:54;7.05;;;3.92;;
58553;SDS011;48119;53.218;6.576;2022-10-23T15:19:23;7.25;;;3.85;;
58553;SDS011;48119;53.218;6.576;2022-10-23T15:21:52;6.63;;;3.80;;
58553;SDS011;48119;53.218;6.576;2022-10-23T15:24:18;4.90;;;3.42;;
58553;SDS011;48119;53.218;6.576;2022-10-23T15:26:47;5.40;;;3.60;;
58553;SDS011;48119;53.218;6.576;2022-10-23T15:29:16;5.50;;;3.30;;
58553;SDS011;48119;53.218;6.576;2022-10-23T15:31:51;8.07;;;4.07;;
58553;SDS011;48119;53.218;6.576;2022-10-23T15:34:23;12.20;;;4.30;;
58553;SDS011;48119;53.218;6.576;2022-10-23T15:36:51;7.32;;;3.80;;
58553;SDS011;48119;53.218;6.576;2022-10-23T15:39:21;9.35;;;3.58;;
58553;SDS011;48119;53.218;6.576;2022-10-23T15:41:49;7.70;;;4.47;;
58553;SDS011;48119;53.218;6.576;2022-10-23T15:44:17;6.75;;;3.67;;
58553;SDS011;48119;53.218;6.576;2022-10-23T15:46:44;10.38;;;3.38;;
58553;SDS011;48119;53.218;6.576;2022-10-23T15:49:11;6.75;;;3.65;;
58553;SDS011;48119;53.218;6.576;2022-10-23T15:51:42;8.95;;;3.80;;
58553;SDS011;48119;53.218;6.576;2022-10-23T15:54:15;9.15;;;3.97;;
58553;SDS011;48119;53.218;6.576;2022-10-23T15:56:44;7.25;;;4.00;;
58553;SDS011;48119;53.218;6.576;2022-10-23T15:59:11;10.30;;;3.38;;
58553;SDS011;48119;53.218;6.576;2022-10-23T16:01:37;15.27;;;5.05;;
58553;SDS011;48119;53.218;6.576;2022-10-23T16:04:11;10.32;;;4.03;;
58553;SDS011;48119;53.218;6.576;2022-10-23T16:06:37;6.57;;;3.67;;
58553;SDS011;48119;53.218;6.576;2022-10-23T16:09:03;11.40;;;3.53;;
58553;SDS011;48119;53.218;6.576;2022-10-23T16:11:30;7.97;;;4.20;;
58553;SDS011;48119;53.218;6.576;2022-10-23T16:13:59;6.55;;;3.97;;
58553;SDS011;48119;53.218;6.576;2022-10-23T16:16:30;6.00;;;3.30;;
58553;SDS011;48119;53.218;6.576;2022-10-23T16:18:57;8.43;;;3.42;;
58553;SDS011;48119;53.218;6.576;2022-10-23T16:21:28;9.43;;;4.30;;
58553;SDS011;48119;53.218;6.576;2022-10-23T16:23:57;7.43;;;3.83;;
58553;SDS011;48119;53.218;6.576;2022-10-23T16:26:25;10.35;;;4.30;;
58553;SDS011;48119;53.218;6.576;2022-10-23T16:28:55;14.52;;;3.47;;
58553;SDS011;48119;53.218;6.576;2022-10-23T16:31:26;7.63;;;3.83;;
58553;SDS011;48119;53.218;6.576;2022-10-23T16:33:55;7.50;;;3.67;;
58553;SDS011;48119;53.218;6.576;2022-10-23T16:36:22;7.07;;;3.90;;
58553;SDS011;48119;53.218;6.576;2022-10-23T16:38:49;8.32;;;4.47;;
58553;SDS011;48119;53.218;6.576;2022-10-23T16:41:14;10.05;;;4.25;;
58553;SDS011;48119;53.218;6.576;2022-10-23T16:43:40;7.13;;;3.78;;
58553;SDS011;48119;53.218;6.576;2022-10-23T16:46:07;8.73;;;4.55;;
58553;SDS011;48119;53.218;6.576;2022-10-23T16:48:43;7.47;;;3.97;;
58553;SDS011;48119;53.218;6.576;2022-10-23T16:51:11;12.90;;;4.60;;
58553;SDS011;48119;53.218;6.576;2022-10-23T16:53:38;9.35;;;4.10;;
58553;SDS011;48119;53.218;6.576;2022-10-23T16:56:05;7.35;;;4.28;;
58553;SDS011;48119;53.218;6.576;2022-10-23T16:58:34;7.20;;;3.92;;
58553;SDS011;48119;53.218;6.576;2022-10-23T17:01:01;6.15;;;3.40;;
58553;SDS011;48119;53.218;6.576;2022-10-23T17:03:32;7.68;;;3.25;;